Flight Track Log - Related Links

Times and Time Zones

All times are in EDT time to prevent confusion due to time zone crossing. See the SWA2236 flight status page for this flight to view local times or setup timezone preferences in your user account.

Time Position Orientation Groundspeed Altitude Reporting Facility
EDT Latitude Longitude Course Direction KTS MPH feet Rate Location/Type
Tue 02:41:10 PM 36.0753 -115.1844 263° West 207 238 3,300  Level Los Angeles Center
Tue 02:42:05 PM 36.0689 -115.2450 263° West 222 255 4,500 1,835 Climbing Los Angeles Center
Tue 02:43:11 PM 35.9972 -115.2925 208° Southwest 273 314 7,000 1,559 Climbing Los Angeles Center
Tue 02:44:12 PM 35.9247 -115.2869 176° South 259 298 7,800 709 Climbing Los Angeles Center
Tue 02:45:18 PM 35.8611 -115.2361 147° Southeast 277 319 8,500 1,125 Climbing Los Angeles Center
Tue 02:46:20 PM 35.8372 -115.1414 107° East 289 333 10,200 1,790 Climbing Los Angeles Center
Tue 02:47:22 PM 35.8281 -115.0067 95° East 319 367 12,200 2,274 Climbing Los Angeles Center
Tue 02:48:24 PM 35.8394 -114.8794 84° East 369 425 14,900 2,468 Climbing Los Angeles Center
Tue 02:49:26 PM 35.8506 -114.7511 84° East 376 433 17,300 2,371 Climbing Los Angeles Center
Tue 02:50:28 PM 35.8625 -114.6161 84° East 390 449 19,800 2,129 Climbing Los Angeles Center
Tue 02:51:30 PM 35.8742 -114.4806 84° East 396 456 21,700 1,645 Climbing Los Angeles Center
Tue 02:52:32 PM 35.8864 -114.3383 84° East 409 471 23,200 1,645 Climbing Los Angeles Center
Tue 02:53:34 PM 35.9017 -114.1597 84° East 429 494 25,100 1,597 Climbing Los Angeles Center
Tue 02:54:36 PM 35.9150 -114.0086 84° East 441 507 26,500 1,306 Climbing Los Angeles Center
Tue 02:55:38 PM 35.9206 -113.8531 87° East 449 517 27,800 1,210 Climbing Los Angeles Center
Tue 02:56:40 PM 35.8908 -113.6983 103° East 463 533 29,000 1,200 Climbing Los Angeles Center
Tue 02:57:43 PM 35.8672 -113.5464 101° East 465 535 30,300 1,344 Climbing Los Angeles Center
Tue 02:58:45 PM 35.8428 -113.3922 101° East 462 532 31,800 1,597 Climbing Los Angeles Center
Tue 02:59:47 PM 35.8136 -113.2078 101° East 458 527 33,600 1,452 Climbing Los Angeles Center
Tue 03:00:49 PM 35.7881 -113.0561 102° East 454 522 34,800 1,065 Climbing Los Angeles Center
Tue 03:01:51 PM 35.7633 -112.9031 101° East 455 524 35,800 823 Climbing Los Angeles Center
Tue 03:02:53 PM 35.7383 -112.7486 101° East 457 526 36,500 585 Climbing Los Angeles Center
Tue 03:03:54 PM 35.7175 -112.6192 101° East 462 532 37,000 242 Climbing Los Angeles Center
Tue 03:04:57 PM 35.6861 -112.4319 102° East 465 535 37,000  Level Los Angeles Center
Tue 03:05:59 PM 35.6600 -112.2794 102° East 467 537 37,000  Level Los Angeles Center
Tue 03:07:01 PM 35.6269 -112.0950 102° East 465 535 37,000  Level Los Angeles Center
Tue 03:07:53 PM 35.6050 -111.9722 102° East 467 537 37,000  Level Albuquerque Center
Tue 03:08:54 PM 35.5878 -111.8158 98° East 464 534 37,000  Level Albuquerque Center
Tue 03:09:56 PM 35.5778 -111.6583 94° East 465 535 37,000  Level Albuquerque Center
Tue 03:10:57 PM 35.5667 -111.5019 95° East 463 533 37,000  Level Albuquerque Center
Tue 03:11:59 PM 35.5536 -111.3078 95° East 466 536 37,000  Level Albuquerque Center
Tue 03:13:00 PM 35.5428 -111.1553 95° East 468 539 37,000  Level Albuquerque Center
Tue 03:14:02 PM 35.5322 -111.0036 95° East 468 539 37,000  Level Albuquerque Center
Tue 03:15:03 PM 35.5203 -110.8264 95° East 467 537 37,000  Level Albuquerque Center
Tue 03:16:05 PM 35.5089 -110.6764 95° East 466 536 37,000  Level Albuquerque Center
Tue 03:17:06 PM 35.4956 -110.4992 95° East 465 535 37,000  Level Albuquerque Center
Tue 03:18:07 PM 35.4844 -110.3486 95° East 465 535 37,000  Level Albuquerque Center
Tue 03:19:09 PM 35.4733 -110.1989 95° East 463 533 37,000  Level Albuquerque Center
Tue 03:20:10 PM 35.4600 -110.0228 95° East 464 534 37,000  Level Albuquerque Center
Tue 03:21:12 PM 35.4478 -109.8717 96° East 466 536 37,000  Level Albuquerque Center
Tue 03:23:15 PM 35.4217 -109.5456 96° East 465 535 37,000  Level Albuquerque Center
Tue 03:24:16 PM 35.4067 -109.3681 96° East 468 539 37,000  Level Albuquerque Center
Tue 03:25:18 PM 35.3936 -109.2189 96° East 465 535 37,000  Level Albuquerque Center
Tue 03:26:19 PM 35.3817 -109.0697 96° East 462 532 37,000  Level Albuquerque Center
Tue 03:27:21 PM 35.3669 -108.8975 96° East 459 528 37,000  Level Albuquerque Center
Tue 03:28:22 PM 35.3533 -108.7500 96° East 459 528 37,000  Level Albuquerque Center
Tue 03:29:24 PM 35.3375 -108.5781 96° East 458 527 37,000  Level Albuquerque Center
Tue 03:30:25 PM 35.3239 -108.4292 96° East 459 528 37,000  Level Albuquerque Center
Tue 03:31:27 PM 35.3089 -108.2553 96° East 461 531 37,000  Level Albuquerque Center
Tue 03:32:28 PM 35.2944 -108.1050 97° East 464 534 37,000  Level Albuquerque Center
Tue 03:33:30 PM 35.2786 -107.9306 96° East 464 534 37,000  Level Albuquerque Center
Tue 03:34:31 PM 35.2642 -107.7803 97° East 464 534 37,000  Level Albuquerque Center
Tue 03:35:33 PM 35.2489 -107.6300 97° East 465 535 37,000  Level Albuquerque Center
Tue 03:36:34 PM 35.2300 -107.4606 98° East 461 531 37,000 49 Level Albuquerque Center
Tue 03:37:36 PM 35.2147 -107.3036 97° East 463 533 37,100  Climbing Albuquerque Center
Tue 03:38:38 PM 35.1978 -107.1333 97° East 465 535 37,000 -49 Descending Albuquerque Center
Tue 03:39:39 PM 35.1822 -106.9864 97° East 457 526 37,000  Level Albuquerque Center
Tue 03:40:41 PM 35.1669 -106.8403 97° East 453 521 37,000  Level Albuquerque Center
Tue 03:41:42 PM 35.1506 -106.6661 97° East 461 531 37,000  Level Albuquerque Center
Tue 03:42:44 PM 35.1311 -106.5156 99° East 472 543 37,000  Level Albuquerque Center
Tue 03:43:45 PM 35.1133 -106.3586 98° East 468 539 37,000  Level Albuquerque Center
Tue 03:44:47 PM 35.0964 -106.2050 98° East 459 528 37,000  Level Albuquerque Center
Tue 03:45:48 PM 35.0789 -106.0536 98° East 453 521 37,000  Level Albuquerque Center
Tue 03:46:50 PM 35.0614 -105.9006 98° East 454 522 37,000  Level Albuquerque Center
Tue 03:47:51 PM 35.0425 -105.7367 98° East 451 519 37,000  Level Albuquerque Center
Tue 03:48:53 PM 35.0239 -105.5828 98° East 453 521 37,000  Level Albuquerque Center
Tue 03:49:54 PM 35.0031 -105.4039 98° East 453 521 37,000  Level Albuquerque Center
Tue 03:50:56 PM 34.9856 -105.2511 98° East 452 520 37,000  Level Albuquerque Center
Tue 03:51:57 PM 34.9661 -105.0972 99° East 456 525 37,000  Level Albuquerque Center
Tue 03:52:58 PM 34.9483 -104.9436 98° East 455 524 37,000  Level Albuquerque Center
Tue 03:54:00 PM 34.9292 -104.7903 99° East 455 524 37,000  Level Albuquerque Center
Tue 03:55:01 PM 34.9233 -104.6386 93° East 450 518 37,000  Level Albuquerque Center
Tue 03:56:03 PM 34.9231 -104.4908 90° East 439 505 37,000  Level Albuquerque Center
Tue 03:57:04 PM 34.9225 -104.3419 90° East 439 505 37,000  Level Albuquerque Center
Tue 03:58:06 PM 34.9261 -104.1931 88° East 439 505 37,000  Level Albuquerque Center
Tue 03:59:07 PM 34.9319 -104.0192 88° East 441 507 37,000  Level Albuquerque Center
Tue 04:00:09 PM 34.9247 -103.8703 93° East 442 509 37,000  Level Albuquerque Center
Tue 04:01:10 PM 34.9031 -103.7222 100° East 443 510 37,000  Level Albuquerque Center
Tue 04:02:12 PM 34.8836 -103.5733 99° East 442 509 37,000  Level Albuquerque Center
Tue 04:03:13 PM 34.8625 -103.4236 100° East 445 512 37,000  Level Albuquerque Center
Tue 04:04:15 PM 34.8414 -103.2725 100° East 448 516 37,000  Level Albuquerque Center
Tue 04:05:16 PM 34.8197 -103.1231 100° East 447 514 37,000  Level Albuquerque Center
Tue 04:06:18 PM 34.7989 -102.9736 100° East 446 513 37,000  Level Albuquerque Center
Tue 04:07:19 PM 34.7772 -102.8250 100° East 443 510 37,000  Level Albuquerque Center
Tue 04:08:21 PM 34.7558 -102.6769 100° East 442 509 37,000  Level Albuquerque Center
Tue 04:09:22 PM 34.7317 -102.5217 101° East 441 507 37,000  Level Albuquerque Center
Tue 04:10:23 PM 34.7100 -102.3781 100° East 436 502 37,000  Level Albuquerque Center
Tue 04:11:25 PM 34.6886 -102.2356 100° East 433 498 37,000  Level Albuquerque Center
Tue 04:12:26 PM 34.6622 -102.0667 101° East 428 493 37,000  Level Albuquerque Center
Tue 04:13:28 PM 34.6414 -101.9278 100° East 424 488 37,000  Level Albuquerque Center
Tue 04:14:29 PM 34.6211 -101.7894 100° East 421 484 37,000  Level Albuquerque Center
Tue 04:15:31 PM 34.5989 -101.6531 101° East 417 480 37,000  Level Albuquerque Center
Tue 04:16:32 PM 34.5775 -101.5147 101° East 419 482 37,000  Level Albuquerque Center
Tue 04:17:34 PM 34.5564 -101.3750 100° East 421 484 37,000  Level Albuquerque Center
Tue 04:18:35 PM 34.5342 -101.2386 101° East 418 481 37,000  Level Albuquerque Center
Tue 04:19:37 PM 34.5083 -101.0761 101° East 414 476 37,000  Level Albuquerque Center
Tue 04:20:38 PM 34.4869 -100.9397 101° East 413 475 37,000  Level Albuquerque Center
Tue 04:21:40 PM 34.4642 -100.8039 101° East 415 478 37,000  Level Albuquerque Center
Tue 04:22:41 PM 34.4417 -100.6647 101° East 419 482 37,000  Level Albuquerque Center
Tue 04:23:43 PM 34.4192 -100.5261 101° East 422 486 37,000  Level Albuquerque Center
Tue 04:24:44 PM 34.3964 -100.3878 101° East 421 484 37,000  Level Albuquerque Center
Tue 04:25:46 PM 34.3728 -100.2492 102° East 422 486 37,000  Level Albuquerque Center
Tue 04:27:02 PM 34.3394 -100.0519 102° East 417 480 37,000  Level Fort Worth Center
Tue 04:28:03 PM 34.3169 -99.9256 102° East 417 480 37,000  Level Fort Worth Center
Tue 04:29:03 PM 34.2928 -99.7789 101° East 423 487 37,000  Level Fort Worth Center
Tue 04:30:03 PM 34.2683 -99.6350 102° East 428 493 37,000  Level Fort Worth Center
Tue 04:31:03 PM 34.2436 -99.4936 102° East 433 498 37,000  Level Fort Worth Center
Tue 04:32:02 PM 34.2189 -99.3500 102° East 428 493 37,000  Level Fort Worth Center
Tue 04:33:02 PM 34.1917 -99.2036 103° East 433 498 37,000  Level Fort Worth Center
Tue 04:34:03 PM 34.1625 -99.0525 103° East 433 498 37,000  Level Fort Worth Center
Tue 04:35:02 PM 34.1392 -98.9117 101° East 427 491 37,000  Level Fort Worth Center
Tue 04:36:02 PM 34.1117 -98.7656 103° East 432 497 37,000  Level Fort Worth Center
Tue 04:37:03 PM 34.0900 -98.6372 101° East 432 497 37,000  Level Fort Worth Center
Tue 04:38:03 PM 34.0622 -98.4942 103° East 432 497 37,000  Level Fort Worth Center
Tue 04:39:03 PM 34.0383 -98.3483 101° East 432 497 37,000  Level Fort Worth Center
Tue 04:40:03 PM 34.0122 -98.2078 103° East 432 497 37,000  Level Fort Worth Center
Tue 04:41:03 PM 33.9858 -98.0647 103° East 432 497 37,000  Level Fort Worth Center
Tue 04:42:02 PM 33.9572 -97.9217 104° East 432 497 37,000  Level Fort Worth Center
Tue 04:43:03 PM 33.9308 -97.7764 102° East 432 497 37,000  Level Fort Worth Center
Tue 04:44:03 PM 33.9039 -97.6336 103° East 432 497 37,000  Level Fort Worth Center
Tue 04:45:03 PM 33.8750 -97.4911 104° East 432 497 37,000  Level Fort Worth Center
Tue 04:46:03 PM 33.8497 -97.3483 102° East 432 497 37,000  Level Fort Worth Center
Tue 04:47:02 PM 33.8206 -97.2036 104° East 432 497 37,000  Level Fort Worth Center
Tue 04:48:02 PM 33.7931 -97.0611 103° East 432 497 37,000  Level Fort Worth Center
Tue 04:49:03 PM 33.7633 -96.9164 104° East 432 497 37,000  Level Fort Worth Center
Tue 04:50:03 PM 33.7356 -96.7767 103° East 432 497 37,000  Level Fort Worth Center
Tue 04:51:03 PM 33.7078 -96.6344 103° East 432 497 37,000  Level Fort Worth Center
Tue 04:52:03 PM 33.6794 -96.4950 104° East 432 497 37,000  Level Fort Worth Center
Tue 04:53:03 PM 33.6514 -96.3556 104° East 432 497 37,000  Level Fort Worth Center
Tue 04:54:03 PM 33.6231 -96.2111 103° East 432 497 37,000  Level Fort Worth Center
Tue 04:55:03 PM 33.5944 -96.0769 104° East 426 490 37,000  Level Fort Worth Center
Tue 04:56:03 PM 33.5636 -95.9378 105° East 426 490 37,000  Level Fort Worth Center
Tue 04:57:03 PM 33.5347 -95.7936 103° East 433 498 37,000  Level Fort Worth Center
Tue 04:58:02 PM 33.5036 -95.6522 105° East 433 498 37,000  Level Fort Worth Center
Tue 04:59:02 PM 33.4700 -95.5011 105° East 433 498 37,000  Level Fort Worth Center
Tue 05:00:03 PM 33.4408 -95.3597 104° East 433 498 37,000  Level Fort Worth Center
Tue 05:01:03 PM 33.4133 -95.2186 103° East 433 498 37,000  Level Fort Worth Center
Tue 05:02:03 PM 33.3817 -95.0750 105° East 433 498 37,000  Level Fort Worth Center
Tue 05:03:02 PM 33.3517 -94.9317 104° East 433 498 37,000  Level Fort Worth Center
Tue 05:04:03 PM 33.3175 -94.7908 106° East 433 498 37,000  Level Fort Worth Center
Tue 05:05:03 PM 33.2894 -94.6475 103° East 433 498 37,000 454 Level Fort Worth Center
Tue 05:06:02 PM 33.2569 -94.5069 105° East 433 498 37,900 900 Climbing Fort Worth Center
Tue 05:07:03 PM 33.2244 -94.3667 105° East 433 498 38,800 550 Climbing Fort Worth Center
Tue 05:08:02 PM 33.1939 -94.2261 105° East 433 498 39,000 101 Climbing Fort Worth Center
Tue 05:09:02 PM 33.1633 -94.0931 105° East 438 504 39,000  Level Fort Worth Center
Tue 05:10:03 PM 33.1303 -93.9506 105° East 438 504 39,000  Level Fort Worth Center
Tue 05:11:02 PM 33.1011 -93.8078 104° East 438 504 39,000  Level Fort Worth Center
Tue 05:12:03 PM 33.0719 -93.6678 104° East 438 504 39,000  Level Fort Worth Center
Tue 05:13:03 PM 33.0383 -93.5256 106° East 438 504 39,000  Level Fort Worth Center
Tue 05:14:03 PM 33.0089 -93.3856 104° East 433 498 39,000  Level Fort Worth Center
Tue 05:15:03 PM 32.9753 -93.2458 106° East 433 498 39,000  Level Fort Worth Center
Tue 05:16:03 PM 32.9433 -93.1064 105° East 433 498 39,000  Level Fort Worth Center
Tue 05:17:03 PM 32.9092 -92.9669 106° East 433 498 39,000  Level Fort Worth Center
Tue 05:18:03 PM 32.8792 -92.8250 104° East 433 498 39,000  Level Fort Worth Center
Tue 05:19:03 PM 32.8467 -92.6808 105° East 433 498 39,000  Level Fort Worth Center
Tue 05:20:02 PM 32.8142 -92.5417 105° East 433 498 39,000  Level Fort Worth Center
Tue 05:21:03 PM 32.7814 -92.4003 105° East 433 498 39,000  Level Fort Worth Center
Tue 05:23:02 PM 32.7117 -92.1228 107° East 432 497 39,000  Level Memphis Center
Tue 05:24:02 PM 32.6739 -91.9811 108° East 443 510 39,000  Level Memphis Center
Tue 05:25:02 PM 32.6403 -91.8425 106° East 443 510 39,000  Level Memphis Center
Tue 05:26:02 PM 32.6064 -91.7014 106° East 443 510 39,000  Level Memphis Center
Tue 05:27:02 PM 32.5703 -91.5553 106° East 443 510 39,000  Level Memphis Center
Tue 05:28:02 PM 32.5339 -91.4144 107° East 448 516 39,000  Level Memphis Center
Tue 05:29:02 PM 32.4994 -91.2736 106° East 442 509 39,000  Level Memphis Center
Tue 05:30:02 PM 32.4650 -91.1331 106° East 442 509 39,000  Level Memphis Center
Tue 05:31:02 PM 32.4281 -90.9900 107° East 442 509 39,000  Level Memphis Center
Tue 05:32:02 PM 32.3914 -90.8469 107° East 442 509 39,000  Level Memphis Center
Tue 05:33:02 PM 32.3561 -90.7017 106° East 442 509 39,000  Level Memphis Center
Tue 05:34:02 PM 32.3189 -90.5589 107° East 442 509 39,000  Level Memphis Center
Tue 05:35:02 PM 32.2817 -90.4139 107° East 447 514 39,000  Level Memphis Center
Tue 05:36:02 PM 32.2461 -90.2739 107° East 447 514 39,000  Level Memphis Center
Tue 05:37:02 PM 32.2042 -90.1119 107° East 454 522 39,000  Level Memphis Center
Tue 05:38:02 PM 32.1661 -89.9672 107° East 454 522 39,000  Level Memphis Center
Tue 05:39:02 PM 32.1300 -89.8250 107° East 459 528 39,000  Level Memphis Center
Tue 05:40:02 PM 32.0917 -89.6831 108° East 459 528 39,000  Level Memphis Center
Tue 05:41:02 PM 32.0556 -89.5436 107° East 459 528 39,000  Level Memphis Center
Tue 05:42:02 PM 32.0147 -89.3944 108° East 459 528 39,000  Level Memphis Center
Tue 05:43:02 PM 31.9781 -89.2528 107° East 459 528 39,000  Level Memphis Center
Tue 05:44:02 PM 31.9414 -89.1283 109° East 459 528 39,000  Level Memphis Center
Tue 05:45:02 PM 31.9044 -88.9822 107° East 451 519 39,000  Level Memphis Center
Tue 05:46:02 PM 31.8653 -88.8408 108° East 451 519 39,000  Level Memphis Center
Tue 05:48:30 PM 31.7653 -88.4719 108° East 472 543 39,000  Level Atlanta Center
Tue 05:49:30 PM 31.7283 -88.3311 107° East 461 531 39,000  Level Atlanta Center
Tue 05:50:30 PM 31.6894 -88.1853 107° East 461 531 39,000  Level Atlanta Center
Tue 05:52:38 PM 31.6086 -87.8953 108° East 469 540 39,000  Level Jacksonville Center
Tue 05:53:38 PM 31.5661 -87.7517 109° East 469 540 39,000  Level Jacksonville Center
Tue 05:54:38 PM 31.5256 -87.6083 108° East 469 540 39,000  Level Jacksonville Center
Tue 05:55:38 PM 31.4811 -87.4550 109° East 469 540 39,000  Level Jacksonville Center
Tue 05:56:38 PM 31.4422 -87.3144 108° East 464 534 39,000  Level Jacksonville Center
Tue 05:57:38 PM 31.3992 -87.1689 109° East 464 534 39,000  Level Jacksonville Center
Tue 05:58:38 PM 31.3600 -87.0331 109° East 453 521 39,000  Level Jacksonville Center
Tue 05:59:38 PM 31.3183 -86.9000 110° East 442 509 39,000  Level Jacksonville Center
Tue 06:00:38 PM 31.2786 -86.7647 109° East 442 509 39,000  Level Jacksonville Center
Tue 06:01:38 PM 31.2389 -86.6294 109° East 436 502 39,000  Level Jacksonville Center
Tue 06:02:38 PM 31.1989 -86.4967 109° East 436 502 39,000  Level Jacksonville Center
Tue 06:03:38 PM 31.1606 -86.3667 109° East 430 495 39,000  Level Jacksonville Center
Tue 06:04:38 PM 31.1203 -86.2342 110° East 430 495 39,000 -300 Level Jacksonville Center
Tue 06:05:38 PM 31.0819 -86.1042 109° East 430 495 38,400 -750 Descending Jacksonville Center
Tue 06:06:38 PM 31.0436 -85.9694 108° East 430 495 37,500 -950 Descending Jacksonville Center
Tue 06:07:38 PM 31.0050 -85.8375 109° East 430 495 36,500 -950 Descending Jacksonville Center
Tue 06:08:38 PM 30.9661 -85.7053 109° East 430 495 35,600 -950 Descending Jacksonville Center
Tue 06:09:38 PM 30.9272 -85.5733 109° East 430 495 34,600 -1,000 Descending Jacksonville Center
Tue 06:10:38 PM 30.8842 -85.4414 111° Southeast 430 495 33,600 -800 Descending Jacksonville Center
Tue 06:11:38 PM 30.8447 -85.3122 110° East 430 495 33,000 -300 Descending Jacksonville Center
Tue 06:12:38 PM 30.8222 -85.1786 101° East 425 489 33,000 -50 Level Jacksonville Center
Tue 06:13:38 PM 30.7997 -85.0403 101° East 420 483 32,900 -950 Descending Jacksonville Center
Tue 06:14:38 PM 30.7747 -84.9067 102° East 420 483 31,100 -1,700 Descending Jacksonville Center
Tue 06:15:38 PM 30.7517 -84.7708 101° East 420 483 29,500 -1,050 Descending Jacksonville Center
Tue 06:16:38 PM 30.7344 -84.6617 100° East 426 490 29,000 -250 Descending Jacksonville Center
Tue 06:17:38 PM 30.7092 -84.5139 101° East 426 490 29,000  Level Jacksonville Center
Tue 06:18:38 PM 30.6839 -84.3758 102° East 431 496 29,000  Level Jacksonville Center
Tue 06:19:38 PM 30.6622 -84.2403 100° East 431 496 29,000  Level Jacksonville Center
Tue 06:20:38 PM 30.6367 -84.0997 102° East 431 496 29,000  Level Jacksonville Center
Tue 06:21:38 PM 30.6128 -83.9642 102° East 431 496 29,000  Level Jacksonville Center
Tue 06:22:38 PM 30.5889 -83.8264 101° East 431 496 29,000 -900 Level Jacksonville Center
Tue 06:23:38 PM 30.5667 -83.6983 101° East 426 490 27,200 -2,150 Descending Jacksonville Center
Tue 06:24:38 PM 30.5425 -83.5608 102° East 408 470 24,700 -1,650 Descending Jacksonville Center
Tue 06:25:38 PM 30.5347 -83.4378 94° East 390 449 23,900 -900 Descending Jacksonville Center
Tue 06:26:38 PM 30.5289 -83.3147 93° East 390 449 22,900 -1,000 Descending Jacksonville Center
Tue 06:27:38 PM 30.5272 -83.1939 91° East 384 442 21,900 -1,000 Descending Jacksonville Center
Tue 06:28:38 PM 30.5211 -83.0758 93° East 379 436 20,900 -1,000 Descending Jacksonville Center
Tue 06:29:38 PM 30.5169 -82.9553 92° East 374 430 19,900 -1,000 Descending Jacksonville Center
Tue 06:30:38 PM 30.5150 -82.8419 91° East 362 417 18,900 -1,000 Descending Jacksonville Center
Tue 06:31:38 PM 30.5108 -82.7286 92° East 362 417 17,900 -1,350 Descending Jacksonville Center
Tue 06:32:38 PM 30.5042 -82.6178 94° East 349 402 16,200 -1,978 Descending Jacksonville Center
Tue 06:33:09 PM 30.5042 -82.5622 90° East 339 390 14,900 -2,361 Descending Jacksonville Center
Tue 06:33:39 PM 30.5206 -82.5067 71° East 339 390 13,800 -2,044 Descending Jacksonville Center
Tue 06:34:40 PM 30.5578 -82.4078 66° East 329 379 11,800 -1,765 Descending Jacksonville Center
Tue 06:35:38 PM 30.5639 -82.3158 86° East 315 362 10,300 -1,322 Descending Jacksonville Center
Tue 06:36:38 PM 30.5467 -82.2244 102° East 299 344 9,200 -1,513 Descending Jacksonville Center
Tue 06:37:37 PM 30.5275 -82.1400 105° East 270 311 7,300 -1,800 Descending Jacksonville Center
Tue 06:38:38 PM 30.5122 -82.0533 102° East 276 318 5,600 -1,636 Descending Jacksonville Center
Tue 06:39:38 PM 30.4950 -81.9692 103° East 271 312 4,000 -1,450 Descending Jacksonville Center
Tue 06:40:38 PM 30.4839 -81.8969 100° East 254 292 2,700 -1,050 Descending Jacksonville Center
Tue 06:41:38 PM 30.4856 -81.8367 88° East 215 247 1,900 -650 Descending Jacksonville Center
Tue 06:42:38 PM 30.4853 -81.7933 90° East 170 196 1,400 -554 Descending Jacksonville Center
Tue 06:43:48 PM 30.4867 -81.7403 88° East 140 161 700 -600 Descending Jacksonville Center
Tue 06:45:00 PM 30.4941 -81.6879 115° Southeast  Level Estimated
Tue 06:52:00 PM 30.4941 -81.6879 311° West  Level Estimated

Login

Don't have an account? Register now (free) for customized features, flight alerts, and more!